Impacts METAR Board
IDs:

KDFW - Dallas-Ft Worth Intl, TX, US

Updated at: 0300 UTC 20 Mar 2019
Potential Impact None Slight Moderate High
Time 19/15Z 19/16Z 19/17Z 19/18Z 19/19Z 19/20Z 19/21Z 19/22Z 19/23Z 20/00Z 20/01Z 20/02Z 20/03Z
Temp58 64 67 68 69 70 69 69 69 66 64 61 60
Dewpt37 35 34 36 36 36 35 35 37 37 38 39 39
Altim30.27 30.27 30.27 30.26 30.23 30.20 30.18 30.17 30.15 30.15 30.16 30.16 30.18
VIS10 10 10 10 10 10 10 10 10 10 10 10 10
CIG180 130 250 250 120 120 110 120 120 -- -- -- --
CoverBKNBKNBKNBKNBKNBKNOVCBKNBKNSCTFEWFEWFEW
FltCatVFRVFRVFRVFRVFRVFRVFRVFRVFRVFRVFRVFRVFR
WX--------------------------
WDir200210200190170180170200160160170170160
WSpd8 9 10 17 13 13 14 13 12 8 9 7 8
WGst-- -- -- -- -- 21 -- 21 -- -- -- -- --
Raw hourly METARs
KDFW 191453Z 20008KT 10SM FEW010 SCT130 BKN180 BKN250 14/03 A3027 RMK AO2 SLP246 FU FEW010 NW-N T01440028 53012
KDFW 191553Z 21009KT 10SM BKN130 BKN180 BKN250 18/02 A3027 RMK AO2 SLP247 T01780017
KDFW 191653Z 20010KT 10SM FEW003 SCT150 BKN250 19/01 A3027 RMK AO2 SLP246 FU FEW003 W T01940011
KDFW 191753Z 19017KT 10SM SCT120 BKN250 20/02 A3026 RMK AO2 SLP242 T02000022 10200 20089 58003
KDFW 191853Z 17013KT 10SM BKN120 BKN250 21/02 A3023 RMK AO2 SLP232 T02060022
KDFW 191953Z 18013G21KT 10SM BKN120 21/02 A3020 RMK AO2 SLP221 T02110022
KDFW 192053Z 17014KT 10SM OVC110 21/02 A3018 RMK AO2 SLP215 T02060017 56027
KDFW 192153Z 20013G21KT 10SM BKN120 21/02 A3017 RMK AO2 SLP211 T02060017
KDFW 192253Z 16012KT 10SM BKN120 21/03 A3015 RMK AO2 SLP206 T02060028
KDFW 192353Z 16008KT 10SM SCT110 19/03 A3015 RMK AO2 SLP205 T01890028 10222 20189 56010
KDFW 200053Z 17009KT 10SM FEW110 18/03 A3016 RMK AO2 SLP208 T01780033
KDFW 200153Z 17007KT 10SM FEW110 16/04 A3016 RMK AO2 SLP211 T01610039
KDFW 200253Z 16008KT 10SM FEW110 16/04 A3018 RMK AO2 SLP216 T01560039 53011



Page loaded:  03:12 UTC  |   08:12 PM Pacific  |   09:12 PM Mountain  |   10:12 PM Central  |   11:12 PM Eastern

 

ADVISORIES

FORECASTS

FORECASTS

OBSERVATIONS

USER TOOLS

ABOUT US